sensor_id;sensor_type;location;lat;lon;timestamp;P1;durP1;ratioP1;P2;durP2;ratioP2
7683;SDS011;3884;48.616;12.872;2023-03-21T00:02:16;3.80;;;3.40;;
7683;SDS011;3884;48.616;12.872;2023-03-21T00:04:43;3.87;;;3.50;;
7683;SDS011;3884;48.616;12.872;2023-03-21T00:07:10;3.67;;;3.17;;
7683;SDS011;3884;48.616;12.872;2023-03-21T00:09:38;3.60;;;3.30;;
7683;SDS011;3884;48.616;12.872;2023-03-21T00:12:05;4.07;;;3.67;;
7683;SDS011;3884;48.616;12.872;2023-03-21T00:14:34;4.33;;;3.70;;
7683;SDS011;3884;48.616;12.872;2023-03-21T00:17:02;4.47;;;4.07;;
7683;SDS011;3884;48.616;12.872;2023-03-21T00:19:29;3.93;;;3.60;;
7683;SDS011;3884;48.616;12.872;2023-03-21T00:21:56;3.93;;;3.30;;
7683;SDS011;3884;48.616;12.872;2023-03-21T00:24:23;3.40;;;3.07;;
7683;SDS011;3884;48.616;12.872;2023-03-21T00:26:51;3.53;;;3.20;;
7683;SDS011;3884;48.616;12.872;2023-03-21T00:29:19;3.80;;;3.40;;
7683;SDS011;3884;48.616;12.872;2023-03-21T00:31:45;3.67;;;3.17;;
7683;SDS011;3884;48.616;12.872;2023-03-21T00:34:12;3.50;;;3.20;;
7683;SDS011;3884;48.616;12.872;2023-03-21T00:36:39;3.97;;;3.37;;
7683;SDS011;3884;48.616;12.872;2023-03-21T00:39:07;8.40;;;7.23;;
7683;SDS011;3884;48.616;12.872;2023-03-21T00:41:35;6.43;;;4.70;;
7683;SDS011;3884;48.616;12.872;2023-03-21T00:44:03;4.40;;;4.00;;
7683;SDS011;3884;48.616;12.872;2023-03-21T00:46:30;4.57;;;3.80;;
7683;SDS011;3884;48.616;12.872;2023-03-21T00:48:57;3.47;;;3.17;;
7683;SDS011;3884;48.616;12.872;2023-03-21T00:51:24;3.80;;;3.50;;
7683;SDS011;3884;48.616;12.872;2023-03-21T00:53:52;3.93;;;3.50;;
7683;SDS011;3884;48.616;12.872;2023-03-21T00:56:19;4.33;;;3.93;;
7683;SDS011;3884;48.616;12.872;2023-03-21T00:58:46;4.17;;;3.77;;
7683;SDS011;3884;48.616;12.872;2023-03-21T01:01:16;5.87;;;3.53;;
7683;SDS011;3884;48.616;12.872;2023-03-21T01:03:43;3.50;;;3.20;;
7683;SDS011;3884;48.616;12.872;2023-03-21T01:06:15;3.40;;;3.10;;
7683;SDS011;3884;48.616;12.872;2023-03-21T01:08:44;3.03;;;2.80;;
7683;SDS011;3884;48.616;12.872;2023-03-21T01:11:13;4.30;;;3.40;;
7683;SDS011;3884;48.616;12.872;2023-03-21T01:13:43;3.10;;;2.80;;
7683;SDS011;3884;48.616;12.872;2023-03-21T01:16:10;3.10;;;2.90;;
7683;SDS011;3884;48.616;12.872;2023-03-21T01:18:39;3.27;;;2.97;;
7683;SDS011;3884;48.616;12.872;2023-03-21T01:21:07;3.30;;;3.00;;
7683;SDS011;3884;48.616;12.872;2023-03-21T01:23:36;5.30;;;3.50;;
7683;SDS011;3884;48.616;12.872;2023-03-21T01:26:04;3.43;;;3.13;;
7683;SDS011;3884;48.616;12.872;2023-03-21T01:28:32;4.10;;;3.70;;
7683;SDS011;3884;48.616;12.872;2023-03-21T01:31:00;4.10;;;3.70;;
7683;SDS011;3884;48.616;12.872;2023-03-21T01:33:28;3.97;;;3.57;;
7683;SDS011;3884;48.616;12.872;2023-03-21T01:35:57;4.07;;;3.67;;
7683;SDS011;3884;48.616;12.872;2023-03-21T01:38:28;4.63;;;3.70;;
7683;SDS011;3884;48.616;12.872;2023-03-21T01:40:55;4.83;;;3.53;;
7683;SDS011;3884;48.616;12.872;2023-03-21T01:43:29;5.00;;;4.27;;
7683;SDS011;3884;48.616;12.872;2023-03-21T01:46:11;3.70;;;3.40;;
7683;SDS011;3884;48.616;12.872;2023-03-21T01:49:14;3.77;;;3.47;;
7683;SDS011;3884;48.616;12.872;2023-03-21T01:51:49;4.87;;;3.80;;
7683;SDS011;3884;48.616;12.872;2023-03-21T01:54:20;3.63;;;3.30;;
7683;SDS011;3884;48.616;12.872;2023-03-21T01:56:51;5.33;;;3.57;;
7683;SDS011;3884;48.616;12.872;2023-03-21T01:59:21;3.73;;;3.43;;
7683;SDS011;3884;48.616;12.872;2023-03-21T02:02:07;3.90;;;3.50;;
7683;SDS011;3884;48.616;12.872;2023-03-21T02:04:54;3.63;;;3.27;;
7683;SDS011;3884;48.616;12.872;2023-03-21T02:07:27;4.00;;;3.60;;
7683;SDS011;3884;48.616;12.872;2023-03-21T02:10:02;4.10;;;3.67;;
7683;SDS011;3884;48.616;12.872;2023-03-21T02:12:32;4.10;;;3.70;;
7683;SDS011;3884;48.616;12.872;2023-03-21T02:15:01;3.93;;;3.53;;
7683;SDS011;3884;48.616;12.872;2023-03-21T02:17:38;4.70;;;3.90;;
7683;SDS011;3884;48.616;12.872;2023-03-21T02:20:17;3.97;;;3.60;;
7683;SDS011;3884;48.616;12.872;2023-03-21T02:23:07;4.03;;;3.63;;
7683;SDS011;3884;48.616;12.872;2023-03-21T02:29:03;4.80;;;3.70;;
7683;SDS011;3884;48.616;12.872;2023-03-21T02:31:40;4.10;;;3.70;;
7683;SDS011;3884;48.616;12.872;2023-03-21T02:34:19;4.43;;;4.03;;
7683;SDS011;3884;48.616;12.872;2023-03-21T02:37:10;4.57;;;4.17;;
7683;SDS011;3884;48.616;12.872;2023-03-21T02:39:51;5.47;;;4.50;;
7683;SDS011;3884;48.616;12.872;2023-03-21T02:42:26;4.13;;;3.67;;
7683;SDS011;3884;48.616;12.872;2023-03-21T02:45:01;4.33;;;3.93;;
7683;SDS011;3884;48.616;12.872;2023-03-21T02:47:35;4.53;;;3.73;;
7683;SDS011;3884;48.616;12.872;2023-03-21T02:50:09;5.17;;;4.10;;
7683;SDS011;3884;48.616;12.872;2023-03-21T02:52:43;4.50;;;4.10;;
7683;SDS011;3884;48.616;12.872;2023-03-21T02:55:14;4.30;;;3.90;;
7683;SDS011;3884;48.616;12.872;2023-03-21T02:57:51;6.53;;;4.60;;
7683;SDS011;3884;48.616;12.872;2023-03-21T03:00:20;5.00;;;4.60;;
7683;SDS011;3884;48.616;12.872;2023-03-21T03:02:51;4.40;;;4.00;;
7683;SDS011;3884;48.616;12.872;2023-03-21T03:05:20;5.43;;;4.93;;
7683;SDS011;3884;48.616;12.872;2023-03-21T03:08:00;5.43;;;4.93;;
7683;SDS011;3884;48.616;12.872;2023-03-21T03:10:42;4.47;;;4.07;;
7683;SDS011;3884;48.616;12.872;2023-03-21T03:13:25;4.77;;;4.20;;
7683;SDS011;3884;48.616;12.872;2023-03-21T03:16:08;4.80;;;4.40;;
7683;SDS011;3884;48.616;12.872;2023-03-21T03:18:46;5.17;;;4.67;;
7683;SDS011;3884;48.616;12.872;2023-03-21T03:21:20;5.70;;;4.73;;
7683;SDS011;3884;48.616;12.872;2023-03-21T03:23:51;4.77;;;4.27;;
7683;SDS011;3884;48.616;12.872;2023-03-21T03:26:23;4.87;;;4.40;;
7683;SDS011;3884;48.616;12.872;2023-03-21T03:28:57;5.60;;;4.83;;
7683;SDS011;3884;48.616;12.872;2023-03-21T03:31:28;4.60;;;4.20;;
7683;SDS011;3884;48.616;12.872;2023-03-21T03:34:01;4.60;;;3.90;;
7683;SDS011;3884;48.616;12.872;2023-03-21T03:36:37;5.63;;;4.50;;
7683;SDS011;3884;48.616;12.872;2023-03-21T03:39:12;5.13;;;4.63;;
7683;SDS011;3884;48.616;12.872;2023-03-21T03:41:44;5.20;;;4.70;;
7683;SDS011;3884;48.616;12.872;2023-03-21T03:44:13;5.40;;;4.80;;
7683;SDS011;3884;48.616;12.872;2023-03-21T03:50:08;5.20;;;4.80;;
7683;SDS011;3884;48.616;12.872;2023-03-21T03:52:41;5.17;;;4.67;;
7683;SDS011;3884;48.616;12.872;2023-03-21T03:55:15;5.03;;;4.63;;
7683;SDS011;3884;48.616;12.872;2023-03-21T03:57:47;5.47;;;4.93;;
7683;SDS011;3884;48.616;12.872;2023-03-21T04:00:15;5.33;;;4.83;;
7683;SDS011;3884;48.616;12.872;2023-03-21T04:02:42;6.17;;;5.60;;
7683;SDS011;3884;48.616;12.872;2023-03-21T04:05:13;5.63;;;5.13;;
7683;SDS011;3884;48.616;12.872;2023-03-21T04:07:45;5.37;;;4.87;;
7683;SDS011;3884;48.616;12.872;2023-03-21T04:10:14;5.00;;;4.53;;
7683;SDS011;3884;48.616;12.872;2023-03-21T04:12:42;5.40;;;4.90;;
7683;SDS011;3884;48.616;12.872;2023-03-21T04:15:21;5.63;;;4.63;;
7683;SDS011;3884;48.616;12.872;2023-03-21T04:17:53;5.37;;;4.87;;
7683;SDS011;3884;48.616;12.872;2023-03-21T04:20:21;4.93;;;4.50;;
7683;SDS011;3884;48.616;12.872;2023-03-21T04:22:48;5.50;;;5.00;;
7683;SDS011;3884;48.616;12.872;2023-03-21T04:25:17;6.20;;;4.93;;
7683;SDS011;3884;48.616;12.872;2023-03-21T04:27:44;5.23;;;4.73;;
7683;SDS011;3884;48.616;12.872;2023-03-21T04:30:31;5.83;;;5.17;;
7683;SDS011;3884;48.616;12.872;2023-03-21T04:33:19;5.20;;;4.80;;
7683;SDS011;3884;48.616;12.872;2023-03-21T04:35:53;5.87;;;4.80;;
7683;SDS011;3884;48.616;12.872;2023-03-21T04:38:22;5.43;;;4.93;;
7683;SDS011;3884;48.616;12.872;2023-03-21T04:40:50;5.50;;;4.83;;
7683;SDS011;3884;48.616;12.872;2023-03-21T04:43:17;6.33;;;5.73;;
7683;SDS011;3884;48.616;12.872;2023-03-21T04:45:45;6.97;;;6.27;;
7683;SDS011;3884;48.616;12.872;2023-03-21T04:48:11;6.90;;;6.30;;
7683;SDS011;3884;48.616;12.872;2023-03-21T04:50:39;7.37;;;6.67;;
7683;SDS011;3884;48.616;12.872;2023-03-21T04:53:06;6.30;;;5.70;;
7683;SDS011;3884;48.616;12.872;2023-03-21T04:55:33;7.57;;;6.87;;
7683;SDS011;3884;48.616;12.872;2023-03-21T04:58:02;6.37;;;5.77;;
7683;SDS011;3884;48.616;12.872;2023-03-21T05:00:30;8.77;;;6.53;;
7683;SDS011;3884;48.616;12.872;2023-03-21T05:03:01;7.17;;;6.07;;
7683;SDS011;3884;48.616;12.872;2023-03-21T05:05:29;6.73;;;6.13;;
7683;SDS011;3884;48.616;12.872;2023-03-21T05:07:56;7.70;;;6.83;;
7683;SDS011;3884;48.616;12.872;2023-03-21T05:10:24;6.77;;;6.17;;
7683;SDS011;3884;48.616;12.872;2023-03-21T05:12:51;11.07;;;9.30;;
7683;SDS011;3884;48.616;12.872;2023-03-21T05:15:20;8.73;;;7.83;;
7683;SDS011;3884;48.616;12.872;2023-03-21T05:17:46;7.40;;;6.77;;
7683;SDS011;3884;48.616;12.872;2023-03-21T05:20:14;7.97;;;7.17;;
7683;SDS011;3884;48.616;12.872;2023-03-21T05:22:42;8.50;;;7.70;;
7683;SDS011;3884;48.616;12.872;2023-03-21T05:25:12;7.70;;;6.90;;
7683;SDS011;3884;48.616;12.872;2023-03-21T05:27:57;7.37;;;6.57;;
7683;SDS011;3884;48.616;12.872;2023-03-21T05:30:29;7.03;;;6.37;;
7683;SDS011;3884;48.616;12.872;2023-03-21T05:32:58;10.47;;;7.73;;
7683;SDS011;3884;48.616;12.872;2023-03-21T05:35:26;8.00;;;7.30;;
7683;SDS011;3884;48.616;12.872;2023-03-21T05:37:56;8.27;;;6.83;;
7683;SDS011;3884;48.616;12.872;2023-03-21T05:40:25;7.33;;;6.63;;
7683;SDS011;3884;48.616;12.872;2023-03-21T05:42:55;7.23;;;6.53;;
7683;SDS011;3884;48.616;12.872;2023-03-21T05:45:23;7.70;;;6.90;;
7683;SDS011;3884;48.616;12.872;2023-03-21T05:47:51;7.93;;;6.90;;
7683;SDS011;3884;48.616;12.872;2023-03-21T05:50:22;6.90;;;6.30;;
7683;SDS011;3884;48.616;12.872;2023-03-21T05:53:02;6.97;;;6.27;;
7683;SDS011;3884;48.616;12.872;2023-03-21T05:55:29;6.93;;;6.23;;
7683;SDS011;3884;48.616;12.872;2023-03-21T05:57:56;7.23;;;6.37;;
7683;SDS011;3884;48.616;12.872;2023-03-21T06:00:26;7.83;;;7.03;;
7683;SDS011;3884;48.616;12.872;2023-03-21T06:03:12;8.80;;;7.20;;
7683;SDS011;3884;48.616;12.872;2023-03-21T06:05:53;7.73;;;6.37;;
7683;SDS011;3884;48.616;12.872;2023-03-21T06:08:24;7.33;;;6.63;;
7683;SDS011;3884;48.616;12.872;2023-03-21T06:10:50;6.87;;;6.27;;
7683;SDS011;3884;48.616;12.872;2023-03-21T06:13:19;8.07;;;6.80;;
7683;SDS011;3884;48.616;12.872;2023-03-21T06:15:46;7.20;;;6.50;;
7683;SDS011;3884;48.616;12.872;2023-03-21T06:18:18;6.97;;;6.30;;
7683;SDS011;3884;48.616;12.872;2023-03-21T06:20:57;7.87;;;6.03;;
7683;SDS011;3884;48.616;12.872;2023-03-21T06:23:24;7.70;;;6.90;;
7683;SDS011;3884;48.616;12.872;2023-03-21T06:25:52;8.40;;;7.20;;
7683;SDS011;3884;48.616;12.872;2023-03-21T06:28:19;7.77;;;7.07;;
7683;SDS011;3884;48.616;12.872;2023-03-21T06:30:48;8.23;;;7.50;;
7683;SDS011;3884;48.616;12.872;2023-03-21T06:33:21;7.90;;;7.10;;
7683;SDS011;3884;48.616;12.872;2023-03-21T06:35:49;8.37;;;7.57;;
7683;SDS011;3884;48.616;12.872;2023-03-21T06:38:17;7.87;;;7.17;;
7683;SDS011;3884;48.616;12.872;2023-03-21T06:40:46;8.80;;;7.93;;
7683;SDS011;3884;48.616;12.872;2023-03-21T06:43:13;8.53;;;7.43;;
7683;SDS011;3884;48.616;12.872;2023-03-21T06:45:41;8.33;;;7.53;;
7683;SDS011;3884;48.616;12.872;2023-03-21T06:48:09;8.57;;;7.70;;
7683;SDS011;3884;48.616;12.872;2023-03-21T06:50:47;9.40;;;7.83;;
7683;SDS011;3884;48.616;12.872;2023-03-21T06:53:16;7.93;;;7.13;;
7683;SDS011;3884;48.616;12.872;2023-03-21T06:56:13;8.60;;;7.80;;
7683;SDS011;3884;48.616;12.872;2023-03-21T06:58:41;8.23;;;7.43;;
7683;SDS011;3884;48.616;12.872;2023-03-21T07:01:15;8.00;;;7.13;;
7683;SDS011;3884;48.616;12.872;2023-03-21T07:03:52;7.97;;;7.27;;
7683;SDS011;3884;48.616;12.872;2023-03-21T07:06:23;8.20;;;7.40;;
7683;SDS011;3884;48.616;12.872;2023-03-21T07:08:52;8.07;;;7.37;;
7683;SDS011;3884;48.616;12.872;2023-03-21T07:11:21;9.97;;;8.93;;
7683;SDS011;3884;48.616;12.872;2023-03-21T07:13:49;9.73;;;8.63;;
7683;SDS011;3884;48.616;12.872;2023-03-21T07:16:17;13.33;;;11.03;;
7683;SDS011;3884;48.616;12.872;2023-03-21T07:18:45;9.80;;;8.90;;
7683;SDS011;3884;48.616;12.872;2023-03-21T07:21:13;9.73;;;8.73;;
7683;SDS011;3884;48.616;12.872;2023-03-21T07:23:42;9.30;;;8.40;;
7683;SDS011;3884;48.616;12.872;2023-03-21T07:26:09;10.23;;;7.83;;
7683;SDS011;3884;48.616;12.872;2023-03-21T07:28:37;9.93;;;8.33;;
7683;SDS011;3884;48.616;12.872;2023-03-21T07:31:05;8.60;;;7.70;;
7683;SDS011;3884;48.616;12.872;2023-03-21T07:33:33;9.13;;;8.07;;
7683;SDS011;3884;48.616;12.872;2023-03-21T07:36:01;9.10;;;8.20;;
7683;SDS011;3884;48.616;12.872;2023-03-21T07:38:28;9.03;;;8.07;;
7683;SDS011;3884;48.616;12.872;2023-03-21T07:40:58;8.67;;;7.87;;
7683;SDS011;3884;48.616;12.872;2023-03-21T07:43:29;8.00;;;7.20;;
7683;SDS011;3884;48.616;12.872;2023-03-21T07:45:57;7.80;;;7.00;;
7683;SDS011;3884;48.616;12.872;2023-03-21T07:48:25;8.40;;;7.60;;
7683;SDS011;3884;48.616;12.872;2023-03-21T07:50:53;8.47;;;7.60;;
7683;SDS011;3884;48.616;12.872;2023-03-21T07:53:20;8.30;;;7.47;;
7683;SDS011;3884;48.616;12.872;2023-03-21T07:55:48;8.43;;;7.63;;
7683;SDS011;3884;48.616;12.872;2023-03-21T07:58:17;8.60;;;7.70;;
7683;SDS011;3884;48.616;12.872;2023-03-21T08:00:44;9.03;;;8.13;;
7683;SDS011;3884;48.616;12.872;2023-03-21T08:03:11;9.10;;;8.20;;
7683;SDS011;3884;48.616;12.872;2023-03-21T08:05:38;9.63;;;8.63;;
7683;SDS011;3884;48.616;12.872;2023-03-21T08:08:06;9.13;;;8.23;;
7683;SDS011;3884;48.616;12.872;2023-03-21T08:10:33;9.87;;;8.00;;
7683;SDS011;3884;48.616;12.872;2023-03-21T08:13:01;8.50;;;7.70;;
7683;SDS011;3884;48.616;12.872;2023-03-21T08:15:29;9.23;;;7.43;;
7683;SDS011;3884;48.616;12.872;2023-03-21T08:17:57;9.37;;;7.90;;
7683;SDS011;3884;48.616;12.872;2023-03-21T08:20:24;8.67;;;7.50;;
7683;SDS011;3884;48.616;12.872;2023-03-21T08:22:51;10.00;;;7.80;;
7683;SDS011;3884;48.616;12.872;2023-03-21T08:25:19;8.87;;;7.97;;
7683;SDS011;3884;48.616;12.872;2023-03-21T08:27:47;11.23;;;7.97;;
7683;SDS011;3884;48.616;12.872;2023-03-21T08:30:16;10.80;;;9.70;;
7683;SDS011;3884;48.616;12.872;2023-03-21T08:32:46;8.97;;;8.07;;
7683;SDS011;3884;48.616;12.872;2023-03-21T08:35:15;8.90;;;7.87;;
7683;SDS011;3884;48.616;12.872;2023-03-21T08:37:44;9.00;;;7.67;;
7683;SDS011;3884;48.616;12.872;2023-03-21T08:40:17;8.40;;;7.50;;
7683;SDS011;3884;48.616;12.872;2023-03-21T08:42:45;9.10;;;7.83;;
7683;SDS011;3884;48.616;12.872;2023-03-21T08:45:12;8.80;;;7.90;;
7683;SDS011;3884;48.616;12.872;2023-03-21T08:47:45;8.73;;;7.83;;
7683;SDS011;3884;48.616;12.872;2023-03-21T08:50:22;7.80;;;7.00;;
7683;SDS011;3884;48.616;12.872;2023-03-21T08:52:50;9.00;;;7.80;;
7683;SDS011;3884;48.616;12.872;2023-03-21T08:55:17;8.77;;;7.87;;
7683;SDS011;3884;48.616;12.872;2023-03-21T08:57:45;8.17;;;7.30;;
7683;SDS011;3884;48.616;12.872;2023-03-21T09:00:13;8.60;;;7.70;;
7683;SDS011;3884;48.616;12.872;2023-03-21T09:02:42;8.80;;;7.80;;
7683;SDS011;3884;48.616;12.872;2023-03-21T09:05:12;9.43;;;7.60;;
7683;SDS011;3884;48.616;12.872;2023-03-21T09:07:40;9.50;;;7.23;;
7683;SDS011;3884;48.616;12.872;2023-03-21T09:10:08;8.23;;;7.40;;
7683;SDS011;3884;48.616;12.872;2023-03-21T09:12:37;9.47;;;7.17;;
7683;SDS011;3884;48.616;12.872;2023-03-21T09:15:05;9.33;;;8.27;;
7683;SDS011;3884;48.616;12.872;2023-03-21T09:17:33;8.73;;;7.53;;
7683;SDS011;3884;48.616;12.872;2023-03-21T09:20:00;9.63;;;7.83;;
7683;SDS011;3884;48.616;12.872;2023-03-21T09:22:30;9.57;;;7.83;;
7683;SDS011;3884;48.616;12.872;2023-03-21T09:24:57;9.27;;;7.50;;
7683;SDS011;3884;48.616;12.872;2023-03-21T09:27:32;10.03;;;6.87;;
7683;SDS011;3884;48.616;12.872;2023-03-21T09:29:59;8.87;;;7.03;;
7683;SDS011;3884;48.616;12.872;2023-03-21T09:32:26;10.40;;;7.20;;
7683;SDS011;3884;48.616;12.872;2023-03-21T09:34:53;8.47;;;7.57;;
7683;SDS011;3884;48.616;12.872;2023-03-21T09:37:21;10.47;;;7.83;;
7683;SDS011;3884;48.616;12.872;2023-03-21T09:39:50;9.30;;;7.57;;
7683;SDS011;3884;48.616;12.872;2023-03-21T09:42:24;8.20;;;7.07;;
7683;SDS011;3884;48.616;12.872;2023-03-21T09:45:01;9.17;;;7.10;;
7683;SDS011;3884;48.616;12.872;2023-03-21T09:47:37;9.37;;;7.30;;
7683;SDS011;3884;48.616;12.872;2023-03-21T09:50:13;8.93;;;7.07;;
7683;SDS011;3884;48.616;12.872;2023-03-21T09:52:45;8.50;;;7.13;;
7683;SDS011;3884;48.616;12.872;2023-03-21T09:55:18;9.47;;;7.20;;
7683;SDS011;3884;48.616;12.872;2023-03-21T09:57:47;7.83;;;6.80;;
7683;SDS011;3884;48.616;12.872;2023-03-21T10:00:19;10.00;;;7.30;;
7683;SDS011;3884;48.616;12.872;2023-03-21T10:02:54;9.90;;;7.30;;
7683;SDS011;3884;48.616;12.872;2023-03-21T10:05:26;10.10;;;7.03;;
7683;SDS011;3884;48.616;12.872;2023-03-21T10:07:57;8.30;;;7.27;;
7683;SDS011;3884;48.616;12.872;2023-03-21T10:10:30;9.27;;;6.77;;
7683;SDS011;3884;48.616;12.872;2023-03-21T10:13:00;7.23;;;6.43;;
7683;SDS011;3884;48.616;12.872;2023-03-21T10:15:27;6.97;;;6.27;;
7683;SDS011;3884;48.616;12.872;2023-03-21T10:17:55;8.10;;;6.10;;
7683;SDS011;3884;48.616;12.872;2023-03-21T10:20:26;8.00;;;6.60;;
7683;SDS011;3884;48.616;12.872;2023-03-21T10:22:56;7.60;;;6.73;;
7683;SDS011;3884;48.616;12.872;2023-03-21T10:25:25;7.73;;;6.93;;
7683;SDS011;3884;48.616;12.872;2023-03-21T10:27:58;6.33;;;5.20;;
7683;SDS011;3884;48.616;12.872;2023-03-21T10:30:33;6.53;;;5.70;;
7683;SDS011;3884;48.616;12.872;2023-03-21T10:33:04;11.00;;;8.57;;
7683;SDS011;3884;48.616;12.872;2023-03-21T10:35:34;7.23;;;6.53;;
7683;SDS011;3884;48.616;12.872;2023-03-21T10:38:04;8.93;;;5.70;;
7683;SDS011;3884;48.616;12.872;2023-03-21T10:40:33;8.30;;;5.83;;
7683;SDS011;3884;48.616;12.872;2023-03-21T10:43:14;7.07;;;6.10;;
7683;SDS011;3884;48.616;12.872;2023-03-21T10:45:51;8.57;;;5.97;;
7683;SDS011;3884;48.616;12.872;2023-03-21T10:48:19;6.47;;;5.87;;
7683;SDS011;3884;48.616;12.872;2023-03-21T10:50:47;6.30;;;5.70;;
7683;SDS011;3884;48.616;12.872;2023-03-21T10:53:18;10.47;;;7.53;;
7683;SDS011;3884;48.616;12.872;2023-03-21T10:55:49;8.87;;;6.73;;
7683;SDS011;3884;48.616;12.872;2023-03-21T10:58:19;6.80;;;6.10;;
7683;SDS011;3884;48.616;12.872;2023-03-21T11:00:53;6.37;;;5.13;;
7683;SDS011;3884;48.616;12.872;2023-03-21T11:03:24;6.23;;;5.50;;
7683;SDS011;3884;48.616;12.872;2023-03-21T11:05:57;6.00;;;5.10;;
7683;SDS011;3884;48.616;12.872;2023-03-21T11:08:34;6.97;;;5.00;;
7683;SDS011;3884;48.616;12.872;2023-03-21T11:11:05;7.57;;;5.30;;
7683;SDS011;3884;48.616;12.872;2023-03-21T11:13:36;6.87;;;6.17;;
7683;SDS011;3884;48.616;12.872;2023-03-21T11:16:05;6.33;;;5.73;;
7683;SDS011;3884;48.616;12.872;2023-03-21T11:18:38;6.40;;;5.80;;
7683;SDS011;3884;48.616;12.872;2023-03-21T11:21:07;6.40;;;5.50;;
7683;SDS011;3884;48.616;12.872;2023-03-21T11:23:37;5.47;;;4.97;;
7683;SDS011;3884;48.616;12.872;2023-03-21T11:26:10;6.00;;;5.40;;
7683;SDS011;3884;48.616;12.872;2023-03-21T11:28:44;8.13;;;5.10;;
7683;SDS011;3884;48.616;12.872;2023-03-21T11:31:12;9.80;;;7.70;;
7683;SDS011;3884;48.616;12.872;2023-03-21T11:33:39;7.30;;;5.80;;
7683;SDS011;3884;48.616;12.872;2023-03-21T11:36:24;9.37;;;5.80;;
7683;SDS011;3884;48.616;12.872;2023-03-21T11:38:58;6.50;;;5.10;;
7683;SDS011;3884;48.616;12.872;2023-03-21T11:41:40;6.33;;;5.40;;
7683;SDS011;3884;48.616;12.872;2023-03-21T11:44:22;6.07;;;5.30;;
7683;SDS011;3884;48.616;12.872;2023-03-21T11:46:52;6.93;;;6.23;;
7683;SDS011;3884;48.616;12.872;2023-03-21T11:49:20;5.83;;;5.17;;
7683;SDS011;3884;48.616;12.872;2023-03-21T11:51:49;6.00;;;5.40;;
7683;SDS011;3884;48.616;12.872;2023-03-21T11:54:27;7.00;;;5.63;;
7683;SDS011;3884;48.616;12.872;2023-03-21T11:57:04;5.87;;;5.17;;
7683;SDS011;3884;48.616;12.872;2023-03-21T11:59:41;5.80;;;4.77;;
7683;SDS011;3884;48.616;12.872;2023-03-21T12:02:25;7.93;;;5.57;;
7683;SDS011;3884;48.616;12.872;2023-03-21T12:05:09;5.63;;;4.97;;
7683;SDS011;3884;48.616;12.872;2023-03-21T12:07:46;8.63;;;5.17;;
7683;SDS011;3884;48.616;12.872;2023-03-21T12:10:25;6.77;;;5.57;;
7683;SDS011;3884;48.616;12.872;2023-03-21T12:13:06;6.60;;;4.90;;
7683;SDS011;3884;48.616;12.872;2023-03-21T12:15:44;6.43;;;4.90;;
7683;SDS011;3884;48.616;12.872;2023-03-21T12:18:25;5.63;;;5.13;;
7683;SDS011;3884;48.616;12.872;2023-03-21T12:21:13;5.90;;;5.30;;
7683;SDS011;3884;48.616;12.872;2023-03-21T12:23:54;7.83;;;5.37;;
7683;SDS011;3884;48.616;12.872;2023-03-21T12:26:28;6.77;;;5.30;;
7683;SDS011;3884;48.616;12.872;2023-03-21T12:29:02;6.63;;;5.40;;
7683;SDS011;3884;48.616;12.872;2023-03-21T12:31:50;6.43;;;5.50;;
7683;SDS011;3884;48.616;12.872;2023-03-21T12:34:28;6.40;;;5.13;;
7683;SDS011;3884;48.616;12.872;2023-03-21T12:37:15;5.80;;;5.20;;
7683;SDS011;3884;48.616;12.872;2023-03-21T12:39:49;5.80;;;5.10;;
7683;SDS011;3884;48.616;12.872;2023-03-21T12:42:27;6.50;;;5.90;;
7683;SDS011;3884;48.616;12.872;2023-03-21T12:45:08;7.17;;;5.30;;
7683;SDS011;3884;48.616;12.872;2023-03-21T12:47:39;6.67;;;5.37;;
7683;SDS011;3884;48.616;12.872;2023-03-21T12:50:11;5.67;;;5.13;;
7683;SDS011;3884;48.616;12.872;2023-03-21T12:52:41;6.70;;;5.40;;
7683;SDS011;3884;48.616;12.872;2023-03-21T12:55:12;8.53;;;4.80;;
7683;SDS011;3884;48.616;12.872;2023-03-21T12:57:44;6.57;;;4.77;;
7683;SDS011;3884;48.616;12.872;2023-03-21T13:00:16;5.57;;;4.83;;
7683;SDS011;3884;48.616;12.872;2023-03-21T13:02:48;5.07;;;4.57;;
7683;SDS011;3884;48.616;12.872;2023-03-21T13:05:19;6.23;;;4.87;;
7683;SDS011;3884;48.616;12.872;2023-03-21T13:07:53;5.47;;;4.87;;
7683;SDS011;3884;48.616;12.872;2023-03-21T13:10:25;5.33;;;4.83;;
7683;SDS011;3884;48.616;12.872;2023-03-21T13:12:55;5.63;;;5.07;;
7683;SDS011;3884;48.616;12.872;2023-03-21T13:15:36;5.47;;;4.73;;
7683;SDS011;3884;48.616;12.872;2023-03-21T13:18:31;5.50;;;4.90;;
7683;SDS011;3884;48.616;12.872;2023-03-21T13:21:03;5.57;;;5.00;;
7683;SDS011;3884;48.616;12.872;2023-03-21T13:23:37;5.53;;;4.63;;
7683;SDS011;3884;48.616;12.872;2023-03-21T13:26:07;5.57;;;4.70;;
7683;SDS011;3884;48.616;12.872;2023-03-21T13:28:37;5.10;;;4.57;;
7683;SDS011;3884;48.616;12.872;2023-03-21T13:31:17;5.63;;;4.97;;
7683;SDS011;3884;48.616;12.872;2023-03-21T13:33:46;5.40;;;4.90;;
7683;SDS011;3884;48.616;12.872;2023-03-21T13:36:15;6.57;;;4.63;;
7683;SDS011;3884;48.616;12.872;2023-03-21T13:38:48;8.00;;;5.40;;
7683;SDS011;3884;48.616;12.872;2023-03-21T13:41:16;5.47;;;4.80;;
7683;SDS011;3884;48.616;12.872;2023-03-21T13:43:51;5.40;;;4.90;;
7683;SDS011;3884;48.616;12.872;2023-03-21T13:46:34;5.77;;;4.97;;
7683;SDS011;3884;48.616;12.872;2023-03-21T13:49:14;5.53;;;4.77;;
7683;SDS011;3884;48.616;12.872;2023-03-21T13:51:52;6.30;;;4.90;;
7683;SDS011;3884;48.616;12.872;2023-03-21T13:54:22;4.93;;;4.17;;
7683;SDS011;3884;48.616;12.872;2023-03-21T13:56:55;5.47;;;4.70;;
7683;SDS011;3884;48.616;12.872;2023-03-21T13:59:36;5.00;;;4.50;;
7683;SDS011;3884;48.616;12.872;2023-03-21T14:02:19;4.23;;;3.83;;
7683;SDS011;3884;48.616;12.872;2023-03-21T14:04:53;4.60;;;4.20;;
7683;SDS011;3884;48.616;12.872;2023-03-21T14:07:25;5.07;;;4.30;;
7683;SDS011;3884;48.616;12.872;2023-03-21T14:09:54;4.70;;;4.20;;
7683;SDS011;3884;48.616;12.872;2023-03-21T14:12:26;5.30;;;4.60;;
7683;SDS011;3884;48.616;12.872;2023-03-21T14:14:57;5.10;;;4.60;;
7683;SDS011;3884;48.616;12.872;2023-03-21T14:17:28;5.53;;;4.50;;
7683;SDS011;3884;48.616;12.872;2023-03-21T14:19:57;4.83;;;4.27;;
7683;SDS011;3884;48.616;12.872;2023-03-21T14:22:26;5.03;;;4.53;;
7683;SDS011;3884;48.616;12.872;2023-03-21T14:24:55;4.57;;;3.70;;
7683;SDS011;3884;48.616;12.872;2023-03-21T14:27:23;4.87;;;4.37;;
7683;SDS011;3884;48.616;12.872;2023-03-21T14:29:54;4.50;;;4.10;;
7683;SDS011;3884;48.616;12.872;2023-03-21T14:32:22;4.47;;;4.03;;
7683;SDS011;3884;48.616;12.872;2023-03-21T14:34:53;4.10;;;3.80;;
7683;SDS011;3884;48.616;12.872;2023-03-21T14:37:28;3.63;;;3.30;;
7683;SDS011;3884;48.616;12.872;2023-03-21T14:39:58;4.20;;;3.57;;
7683;SDS011;3884;48.616;12.872;2023-03-21T14:42:27;3.67;;;3.27;;
7683;SDS011;3884;48.616;12.872;2023-03-21T14:44:58;3.73;;;3.40;;
7683;SDS011;3884;48.616;12.872;2023-03-21T14:47:28;5.63;;;3.40;;
7683;SDS011;3884;48.616;12.872;2023-03-21T14:49:57;3.60;;;3.30;;
7683;SDS011;3884;48.616;12.872;2023-03-21T14:52:26;4.47;;;3.60;;
7683;SDS011;3884;48.616;12.872;2023-03-21T14:54:56;4.00;;;3.60;;
7683;SDS011;3884;48.616;12.872;2023-03-21T14:57:25;5.10;;;3.73;;
7683;SDS011;3884;48.616;12.872;2023-03-21T14:59:55;3.97;;;3.27;;
7683;SDS011;3884;48.616;12.872;2023-03-21T15:02:27;4.70;;;3.60;;
7683;SDS011;3884;48.616;12.872;2023-03-21T15:05:04;3.93;;;3.50;;
7683;SDS011;3884;48.616;12.872;2023-03-21T15:07:34;4.20;;;3.58;;
7683;SDS011;3884;48.616;12.872;2023-03-21T15:10:02;4.27;;;3.73;;
7683;SDS011;3884;48.616;12.872;2023-03-21T15:12:31;3.70;;;3.40;;
7683;SDS011;3884;48.616;12.872;2023-03-21T15:14:59;3.70;;;3.37;;
7683;SDS011;3884;48.616;12.872;2023-03-21T15:17:27;4.13;;;2.80;;
7683;SDS011;3884;48.616;12.872;2023-03-21T15:19:54;3.57;;;3.27;;
7683;SDS011;3884;48.616;12.872;2023-03-21T15:22:24;5.07;;;3.30;;
7683;SDS011;3884;48.616;12.872;2023-03-21T15:24:57;3.50;;;3.20;;
7683;SDS011;3884;48.616;12.872;2023-03-21T15:27:25;3.93;;;3.33;;
7683;SDS011;3884;48.616;12.872;2023-03-21T15:29:56;4.30;;;3.60;;
7683;SDS011;3884;48.616;12.872;2023-03-21T15:32:24;4.43;;;3.77;;
7683;SDS011;3884;48.616;12.872;2023-03-21T15:34:52;4.10;;;3.67;;